sensor_id;sensor_type;location;lat;lon;timestamp;P1;durP1;ratioP1;P2;durP2;ratioP2
18532;SDS011;9396;51.510;11.934;2023-06-14T00:01:11;1.20;;;1.10;;
18532;SDS011;9396;51.510;11.934;2023-06-14T00:03:38;1.77;;;1.27;;
18532;SDS011;9396;51.510;11.934;2023-06-14T00:06:05;1.60;;;1.50;;
18532;SDS011;9396;51.510;11.934;2023-06-14T00:08:33;3.47;;;1.40;;
18532;SDS011;9396;51.510;11.934;2023-06-14T00:10:59;2.67;;;1.60;;
18532;SDS011;9396;51.510;11.934;2023-06-14T00:13:26;2.50;;;1.50;;
18532;SDS011;9396;51.510;11.934;2023-06-14T00:15:53;2.37;;;1.50;;
18532;SDS011;9396;51.510;11.934;2023-06-14T00:18:20;3.53;;;1.70;;
18532;SDS011;9396;51.510;11.934;2023-06-14T00:20:49;2.63;;;1.40;;
18532;SDS011;9396;51.510;11.934;2023-06-14T00:23:17;3.70;;;1.53;;
18532;SDS011;9396;51.510;11.934;2023-06-14T00:25:45;2.80;;;1.60;;
18532;SDS011;9396;51.510;11.934;2023-06-14T00:28:12;1.50;;;1.40;;
18532;SDS011;9396;51.510;11.934;2023-06-14T00:30:39;1.53;;;1.33;;
18532;SDS011;9396;51.510;11.934;2023-06-14T00:33:05;2.93;;;1.60;;
18532;SDS011;9396;51.510;11.934;2023-06-14T00:35:32;4.03;;;1.47;;
18532;SDS011;9396;51.510;11.934;2023-06-14T00:37:59;2.73;;;1.70;;
18532;SDS011;9396;51.510;11.934;2023-06-14T00:40:26;2.87;;;1.67;;
18532;SDS011;9396;51.510;11.934;2023-06-14T00:42:54;2.37;;;2.10;;
18532;SDS011;9396;51.510;11.934;2023-06-14T00:45:21;3.33;;;1.70;;
18532;SDS011;9396;51.510;11.934;2023-06-14T00:47:48;3.23;;;1.80;;
18532;SDS011;9396;51.510;11.934;2023-06-14T00:50:17;4.10;;;1.67;;
18532;SDS011;9396;51.510;11.934;2023-06-14T00:52:46;2.50;;;1.50;;
18532;SDS011;9396;51.510;11.934;2023-06-14T00:55:13;2.03;;;1.50;;
18532;SDS011;9396;51.510;11.934;2023-06-14T00:57:39;1.73;;;1.47;;
18532;SDS011;9396;51.510;11.934;2023-06-14T01:00:08;7.10;;;1.57;;
18532;SDS011;9396;51.510;11.934;2023-06-14T01:02:37;4.80;;;1.90;;
18532;SDS011;9396;51.510;11.934;2023-06-14T01:05:05;3.27;;;1.70;;
18532;SDS011;9396;51.510;11.934;2023-06-14T01:07:38;6.00;;;1.53;;
18532;SDS011;9396;51.510;11.934;2023-06-14T01:10:17;2.90;;;1.60;;
18532;SDS011;9396;51.510;11.934;2023-06-14T01:12:55;3.03;;;1.70;;
18532;SDS011;9396;51.510;11.934;2023-06-14T01:15:30;2.30;;;1.70;;
18532;SDS011;9396;51.510;11.934;2023-06-14T01:17:57;2.63;;;1.67;;
18532;SDS011;9396;51.510;11.934;2023-06-14T01:20:28;4.03;;;1.90;;
18532;SDS011;9396;51.510;11.934;2023-06-14T01:22:57;3.83;;;1.50;;
18532;SDS011;9396;51.510;11.934;2023-06-14T01:25:24;5.00;;;2.07;;
18532;SDS011;9396;51.510;11.934;2023-06-14T01:27:52;3.07;;;1.67;;
18532;SDS011;9396;51.510;11.934;2023-06-14T01:30:22;3.00;;;1.93;;
18532;SDS011;9396;51.510;11.934;2023-06-14T01:32:50;2.60;;;1.57;;
18532;SDS011;9396;51.510;11.934;2023-06-14T01:35:18;2.90;;;1.83;;
18532;SDS011;9396;51.510;11.934;2023-06-14T01:37:45;2.90;;;1.50;;
18532;SDS011;9396;51.510;11.934;2023-06-14T01:40:15;2.73;;;1.80;;
18532;SDS011;9396;51.510;11.934;2023-06-14T01:42:44;2.47;;;1.70;;
18532;SDS011;9396;51.510;11.934;2023-06-14T01:45:13;2.73;;;1.87;;
18532;SDS011;9396;51.510;11.934;2023-06-14T01:47:41;3.00;;;1.63;;
18532;SDS011;9396;51.510;11.934;2023-06-14T01:50:09;2.63;;;1.50;;
18532;SDS011;9396;51.510;11.934;2023-06-14T01:52:36;4.50;;;1.80;;
18532;SDS011;9396;51.510;11.934;2023-06-14T01:55:03;3.97;;;1.70;;
18532;SDS011;9396;51.510;11.934;2023-06-14T01:57:32;2.03;;;1.70;;
18532;SDS011;9396;51.510;11.934;2023-06-14T01:59:59;2.00;;;1.67;;
18532;SDS011;9396;51.510;11.934;2023-06-14T02:02:25;1.97;;;1.67;;
18532;SDS011;9396;51.510;11.934;2023-06-14T02:04:52;2.93;;;2.00;;
18532;SDS011;9396;51.510;11.934;2023-06-14T02:07:22;2.67;;;1.87;;
18532;SDS011;9396;51.510;11.934;2023-06-14T02:09:49;9.97;;;1.90;;
18532;SDS011;9396;51.510;11.934;2023-06-14T02:12:15;1.97;;;1.60;;
18532;SDS011;9396;51.510;11.934;2023-06-14T02:14:43;3.50;;;2.10;;
18532;SDS011;9396;51.510;11.934;2023-06-14T02:17:10;4.47;;;1.80;;
18532;SDS011;9396;51.510;11.934;2023-06-14T02:19:37;2.47;;;1.50;;
18532;SDS011;9396;51.510;11.934;2023-06-14T02:22:04;5.33;;;2.03;;
18532;SDS011;9396;51.510;11.934;2023-06-14T02:24:31;2.70;;;1.60;;
18532;SDS011;9396;51.510;11.934;2023-06-14T02:26:57;2.43;;;1.90;;
18532;SDS011;9396;51.510;11.934;2023-06-14T02:29:25;5.47;;;1.70;;
18532;SDS011;9396;51.510;11.934;2023-06-14T02:31:53;6.50;;;2.10;;
18532;SDS011;9396;51.510;11.934;2023-06-14T02:34:19;3.03;;;1.80;;
18532;SDS011;9396;51.510;11.934;2023-06-14T02:36:47;3.07;;;2.00;;
18532;SDS011;9396;51.510;11.934;2023-06-14T02:39:14;2.40;;;1.77;;
18532;SDS011;9396;51.510;11.934;2023-06-14T02:41:41;6.60;;;2.10;;
18532;SDS011;9396;51.510;11.934;2023-06-14T02:44:09;3.43;;;1.77;;
18532;SDS011;9396;51.510;11.934;2023-06-14T02:46:36;12.00;;;2.00;;
18532;SDS011;9396;51.510;11.934;2023-06-14T02:49:04;4.40;;;2.70;;
18532;SDS011;9396;51.510;11.934;2023-06-14T02:51:31;5.93;;;2.73;;
18532;SDS011;9396;51.510;11.934;2023-06-14T02:53:58;4.37;;;1.83;;
18532;SDS011;9396;51.510;11.934;2023-06-14T02:56:24;4.63;;;2.07;;
18532;SDS011;9396;51.510;11.934;2023-06-14T02:58:51;2.87;;;2.00;;
18532;SDS011;9396;51.510;11.934;2023-06-14T03:01:18;5.03;;;2.13;;
18532;SDS011;9396;51.510;11.934;2023-06-14T03:03:45;5.00;;;2.07;;
18532;SDS011;9396;51.510;11.934;2023-06-14T03:06:13;4.10;;;1.90;;
18532;SDS011;9396;51.510;11.934;2023-06-14T03:08:41;4.47;;;2.07;;
18532;SDS011;9396;51.510;11.934;2023-06-14T03:11:09;2.00;;;1.77;;
18532;SDS011;9396;51.510;11.934;2023-06-14T03:13:35;3.80;;;1.57;;
18532;SDS011;9396;51.510;11.934;2023-06-14T03:16:02;5.30;;;2.30;;
18532;SDS011;9396;51.510;11.934;2023-06-14T03:18:29;4.73;;;2.00;;
18532;SDS011;9396;51.510;11.934;2023-06-14T03:21:00;2.30;;;1.80;;
18532;SDS011;9396;51.510;11.934;2023-06-14T03:23:29;3.13;;;1.83;;
18532;SDS011;9396;51.510;11.934;2023-06-14T03:25:55;3.90;;;1.90;;
18532;SDS011;9396;51.510;11.934;2023-06-14T03:28:22;3.10;;;2.00;;
18532;SDS011;9396;51.510;11.934;2023-06-14T03:30:49;2.33;;;1.80;;
18532;SDS011;9396;51.510;11.934;2023-06-14T03:33:16;3.20;;;1.93;;
18532;SDS011;9396;51.510;11.934;2023-06-14T03:35:43;3.93;;;1.97;;
18532;SDS011;9396;51.510;11.934;2023-06-14T03:38:09;3.57;;;2.20;;
18532;SDS011;9396;51.510;11.934;2023-06-14T03:40:37;9.70;;;2.10;;
18532;SDS011;9396;51.510;11.934;2023-06-14T03:43:04;5.57;;;1.80;;
18532;SDS011;9396;51.510;11.934;2023-06-14T03:45:30;6.47;;;2.20;;
18532;SDS011;9396;51.510;11.934;2023-06-14T03:47:57;2.90;;;2.17;;
18532;SDS011;9396;51.510;11.934;2023-06-14T03:50:25;3.50;;;1.80;;
18532;SDS011;9396;51.510;11.934;2023-06-14T03:52:52;5.50;;;2.00;;
18532;SDS011;9396;51.510;11.934;2023-06-14T03:55:19;3.00;;;1.77;;
18532;SDS011;9396;51.510;11.934;2023-06-14T03:57:47;2.57;;;1.73;;
18532;SDS011;9396;51.510;11.934;2023-06-14T04:00:14;5.63;;;2.17;;
18532;SDS011;9396;51.510;11.934;2023-06-14T04:02:40;4.17;;;2.10;;
18532;SDS011;9396;51.510;11.934;2023-06-14T04:05:09;2.63;;;1.87;;
18532;SDS011;9396;51.510;11.934;2023-06-14T04:07:35;6.37;;;2.00;;
18532;SDS011;9396;51.510;11.934;2023-06-14T04:10:05;2.30;;;2.00;;
18532;SDS011;9396;51.510;11.934;2023-06-14T04:12:33;3.80;;;1.87;;
18532;SDS011;9396;51.510;11.934;2023-06-14T04:15:01;3.10;;;2.17;;
18532;SDS011;9396;51.510;11.934;2023-06-14T04:17:27;3.37;;;2.20;;
18532;SDS011;9396;51.510;11.934;2023-06-14T04:19:54;3.87;;;2.10;;
18532;SDS011;9396;51.510;11.934;2023-06-14T04:22:23;4.43;;;2.13;;
18532;SDS011;9396;51.510;11.934;2023-06-14T04:24:53;2.63;;;2.37;;
18532;SDS011;9396;51.510;11.934;2023-06-14T04:27:20;4.73;;;2.30;;
18532;SDS011;9396;51.510;11.934;2023-06-14T04:29:50;4.30;;;2.13;;
18532;SDS011;9396;51.510;11.934;2023-06-14T04:32:23;3.50;;;2.40;;
18532;SDS011;9396;51.510;11.934;2023-06-14T04:34:51;4.10;;;2.33;;
18532;SDS011;9396;51.510;11.934;2023-06-14T04:37:19;4.17;;;2.37;;
18532;SDS011;9396;51.510;11.934;2023-06-14T04:39:46;3.80;;;2.07;;
18532;SDS011;9396;51.510;11.934;2023-06-14T04:42:13;2.77;;;2.40;;
18532;SDS011;9396;51.510;11.934;2023-06-14T04:44:41;4.77;;;3.00;;
18532;SDS011;9396;51.510;11.934;2023-06-14T04:47:08;2.47;;;2.20;;
18532;SDS011;9396;51.510;11.934;2023-06-14T04:49:37;3.20;;;2.43;;
18532;SDS011;9396;51.510;11.934;2023-06-14T04:52:05;3.30;;;2.50;;
18532;SDS011;9396;51.510;11.934;2023-06-14T04:54:32;4.13;;;2.70;;
18532;SDS011;9396;51.510;11.934;2023-06-14T04:57:01;3.93;;;3.00;;
18532;SDS011;9396;51.510;11.934;2023-06-14T04:59:29;4.57;;;2.80;;
18532;SDS011;9396;51.510;11.934;2023-06-14T05:01:58;8.70;;;2.97;;
18532;SDS011;9396;51.510;11.934;2023-06-14T05:04:25;5.87;;;3.13;;
18532;SDS011;9396;51.510;11.934;2023-06-14T05:06:54;6.33;;;3.03;;
18532;SDS011;9396;51.510;11.934;2023-06-14T05:09:21;5.73;;;3.10;;
18532;SDS011;9396;51.510;11.934;2023-06-14T05:11:48;6.87;;;3.00;;
18532;SDS011;9396;51.510;11.934;2023-06-14T05:14:15;4.03;;;3.40;;
18532;SDS011;9396;51.510;11.934;2023-06-14T05:16:42;8.10;;;3.27;;
18532;SDS011;9396;51.510;11.934;2023-06-14T05:19:09;10.40;;;3.87;;
18532;SDS011;9396;51.510;11.934;2023-06-14T05:21:36;5.83;;;3.70;;
18532;SDS011;9396;51.510;11.934;2023-06-14T05:24:04;4.53;;;3.57;;
18532;SDS011;9396;51.510;11.934;2023-06-14T05:26:31;6.47;;;3.50;;
18532;SDS011;9396;51.510;11.934;2023-06-14T05:28:58;6.90;;;4.00;;
18532;SDS011;9396;51.510;11.934;2023-06-14T05:31:26;5.77;;;3.50;;
18532;SDS011;9396;51.510;11.934;2023-06-14T05:33:53;9.70;;;3.80;;
18532;SDS011;9396;51.510;11.934;2023-06-14T05:36:20;9.93;;;4.00;;
18532;SDS011;9396;51.510;11.934;2023-06-14T05:38:47;4.90;;;3.93;;
18532;SDS011;9396;51.510;11.934;2023-06-14T05:41:15;6.33;;;3.47;;
18532;SDS011;9396;51.510;11.934;2023-06-14T05:43:41;6.10;;;3.87;;
18532;SDS011;9396;51.510;11.934;2023-06-14T05:46:08;8.57;;;3.90;;
18532;SDS011;9396;51.510;11.934;2023-06-14T05:48:35;8.03;;;4.27;;
18532;SDS011;9396;51.510;11.934;2023-06-14T05:51:02;8.80;;;3.90;;
18532;SDS011;9396;51.510;11.934;2023-06-14T05:53:29;8.93;;;3.70;;
18532;SDS011;9396;51.510;11.934;2023-06-14T05:55:55;6.83;;;3.40;;
18532;SDS011;9396;51.510;11.934;2023-06-14T05:58:23;4.53;;;3.37;;
18532;SDS011;9396;51.510;11.934;2023-06-14T06:00:50;3.63;;;3.13;;
18532;SDS011;9396;51.510;11.934;2023-06-14T06:03:18;7.03;;;4.00;;
18532;SDS011;9396;51.510;11.934;2023-06-14T06:05:46;6.00;;;4.10;;
18532;SDS011;9396;51.510;11.934;2023-06-14T06:08:12;6.40;;;3.87;;
18532;SDS011;9396;51.510;11.934;2023-06-14T06:10:39;11.17;;;4.60;;
18532;SDS011;9396;51.510;11.934;2023-06-14T06:13:06;5.93;;;3.33;;
18532;SDS011;9396;51.510;11.934;2023-06-14T06:15:34;7.00;;;3.77;;
18532;SDS011;9396;51.510;11.934;2023-06-14T06:18:00;8.50;;;3.60;;
18532;SDS011;9396;51.510;11.934;2023-06-14T06:20:27;5.63;;;3.23;;
18532;SDS011;9396;51.510;11.934;2023-06-14T06:22:55;5.20;;;3.30;;
18532;SDS011;9396;51.510;11.934;2023-06-14T06:25:22;7.50;;;3.97;;
18532;SDS011;9396;51.510;11.934;2023-06-14T06:27:51;13.67;;;4.13;;
18532;SDS011;9396;51.510;11.934;2023-06-14T06:30:17;12.23;;;3.93;;
18532;SDS011;9396;51.510;11.934;2023-06-14T06:32:46;5.13;;;3.17;;
18532;SDS011;9396;51.510;11.934;2023-06-14T06:35:12;4.77;;;3.43;;
18532;SDS011;9396;51.510;11.934;2023-06-14T06:37:39;5.10;;;3.53;;
18532;SDS011;9396;51.510;11.934;2023-06-14T06:40:06;5.40;;;3.40;;
18532;SDS011;9396;51.510;11.934;2023-06-14T06:42:33;5.33;;;3.13;;
18532;SDS011;9396;51.510;11.934;2023-06-14T06:45:00;6.03;;;3.67;;
18532;SDS011;9396;51.510;11.934;2023-06-14T06:47:27;3.97;;;3.17;;
18532;SDS011;9396;51.510;11.934;2023-06-14T06:49:55;5.30;;;3.43;;
18532;SDS011;9396;51.510;11.934;2023-06-14T06:52:21;4.03;;;3.10;;
18532;SDS011;9396;51.510;11.934;2023-06-14T06:54:48;5.90;;;2.90;;
18532;SDS011;9396;51.510;11.934;2023-06-14T06:57:19;4.10;;;3.30;;
18532;SDS011;9396;51.510;11.934;2023-06-14T06:59:47;4.63;;;3.10;;
18532;SDS011;9396;51.510;11.934;2023-06-14T07:02:14;5.53;;;2.70;;
18532;SDS011;9396;51.510;11.934;2023-06-14T07:04:41;4.87;;;3.00;;
18532;SDS011;9396;51.510;11.934;2023-06-14T07:07:09;3.53;;;2.77;;
18532;SDS011;9396;51.510;11.934;2023-06-14T07:09:35;7.83;;;2.77;;
18532;SDS011;9396;51.510;11.934;2023-06-14T07:12:02;5.73;;;3.00;;
18532;SDS011;9396;51.510;11.934;2023-06-14T07:14:29;3.43;;;2.93;;
18532;SDS011;9396;51.510;11.934;2023-06-14T07:16:56;7.90;;;2.63;;
18532;SDS011;9396;51.510;11.934;2023-06-14T07:19:23;6.47;;;3.30;;
18532;SDS011;9396;51.510;11.934;2023-06-14T07:21:49;5.70;;;3.20;;
18532;SDS011;9396;51.510;11.934;2023-06-14T07:24:17;4.47;;;2.90;;
18532;SDS011;9396;51.510;11.934;2023-06-14T07:26:46;4.70;;;2.63;;
18532;SDS011;9396;51.510;11.934;2023-06-14T07:29:13;3.80;;;2.80;;
18532;SDS011;9396;51.510;11.934;2023-06-14T07:31:42;4.13;;;2.80;;
18532;SDS011;9396;51.510;11.934;2023-06-14T07:34:09;2.93;;;2.50;;
18532;SDS011;9396;51.510;11.934;2023-06-14T07:36:35;4.50;;;2.73;;
18532;SDS011;9396;51.510;11.934;2023-06-14T07:39:03;3.20;;;2.90;;
18532;SDS011;9396;51.510;11.934;2023-06-14T07:41:32;5.00;;;2.70;;
18532;SDS011;9396;51.510;11.934;2023-06-14T07:43:59;6.27;;;2.77;;
18532;SDS011;9396;51.510;11.934;2023-06-14T07:46:26;4.13;;;2.73;;
18532;SDS011;9396;51.510;11.934;2023-06-14T07:48:52;5.47;;;3.07;;
18532;SDS011;9396;51.510;11.934;2023-06-14T07:51:19;3.30;;;2.60;;
18532;SDS011;9396;51.510;11.934;2023-06-14T07:53:47;5.20;;;2.30;;
18532;SDS011;9396;51.510;11.934;2023-06-14T07:56:14;4.00;;;2.50;;
18532;SDS011;9396;51.510;11.934;2023-06-14T07:58:42;4.27;;;2.70;;
18532;SDS011;9396;51.510;11.934;2023-06-14T08:01:08;5.23;;;2.30;;
18532;SDS011;9396;51.510;11.934;2023-06-14T08:03:36;3.00;;;2.23;;
18532;SDS011;9396;51.510;11.934;2023-06-14T08:06:03;5.03;;;2.40;;
18532;SDS011;9396;51.510;11.934;2023-06-14T08:08:31;3.07;;;2.43;;
18532;SDS011;9396;51.510;11.934;2023-06-14T08:10:57;7.77;;;2.60;;
18532;SDS011;9396;51.510;11.934;2023-06-14T08:13:24;3.23;;;2.50;;
18532;SDS011;9396;51.510;11.934;2023-06-14T08:15:52;5.13;;;2.43;;
18532;SDS011;9396;51.510;11.934;2023-06-14T08:18:18;4.80;;;2.80;;
18532;SDS011;9396;51.510;11.934;2023-06-14T08:20:45;3.20;;;2.47;;
18532;SDS011;9396;51.510;11.934;2023-06-14T08:23:12;3.80;;;2.77;;
18532;SDS011;9396;51.510;11.934;2023-06-14T08:25:38;2.60;;;2.40;;
18532;SDS011;9396;51.510;11.934;2023-06-14T08:28:05;3.93;;;2.77;;
18532;SDS011;9396;51.510;11.934;2023-06-14T08:30:31;5.10;;;2.80;;
18532;SDS011;9396;51.510;11.934;2023-06-14T08:32:59;3.93;;;2.77;;
18532;SDS011;9396;51.510;11.934;2023-06-14T08:35:26;7.37;;;2.70;;
18532;SDS011;9396;51.510;11.934;2023-06-14T08:37:53;5.00;;;2.73;;
18532;SDS011;9396;51.510;11.934;2023-06-14T08:40:20;5.47;;;2.70;;
18532;SDS011;9396;51.510;11.934;2023-06-14T08:42:48;4.50;;;2.40;;
18532;SDS011;9396;51.510;11.934;2023-06-14T08:45:17;9.80;;;3.00;;
18532;SDS011;9396;51.510;11.934;2023-06-14T08:47:44;3.80;;;2.20;;
18532;SDS011;9396;51.510;11.934;2023-06-14T08:50:12;5.57;;;2.47;;
18532;SDS011;9396;51.510;11.934;2023-06-14T08:52:41;8.63;;;2.63;;
18532;SDS011;9396;51.510;11.934;2023-06-14T08:55:15;10.03;;;2.40;;
18532;SDS011;9396;51.510;11.934;2023-06-14T08:57:45;3.30;;;2.50;;
18532;SDS011;9396;51.510;11.934;2023-06-14T09:00:13;3.23;;;2.17;;
18532;SDS011;9396;51.510;11.934;2023-06-14T09:02:40;4.17;;;2.40;;
18532;SDS011;9396;51.510;11.934;2023-06-14T09:05:08;2.77;;;2.47;;
18532;SDS011;9396;51.510;11.934;2023-06-14T09:07:37;4.47;;;2.33;;
18532;SDS011;9396;51.510;11.934;2023-06-14T09:10:07;3.27;;;2.40;;
18532;SDS011;9396;51.510;11.934;2023-06-14T09:12:35;3.07;;;2.30;;
18532;SDS011;9396;51.510;11.934;2023-06-14T09:15:01;7.97;;;2.77;;
18532;SDS011;9396;51.510;11.934;2023-06-14T09:17:32;2.77;;;2.17;;
18532;SDS011;9396;51.510;11.934;2023-06-14T09:19:59;3.87;;;2.23;;
18532;SDS011;9396;51.510;11.934;2023-06-14T09:22:29;4.80;;;2.80;;
18532;SDS011;9396;51.510;11.934;2023-06-14T09:24:57;9.50;;;2.73;;
18532;SDS011;9396;51.510;11.934;2023-06-14T09:29:51;2.50;;;2.20;;
18532;SDS011;9396;51.510;11.934;2023-06-14T09:32:18;3.30;;;2.53;;
18532;SDS011;9396;51.510;11.934;2023-06-14T09:34:45;4.73;;;2.40;;
18532;SDS011;9396;51.510;11.934;2023-06-14T09:37:12;3.33;;;2.60;;
18532;SDS011;9396;51.510;11.934;2023-06-14T09:39:48;2.73;;;2.30;;
18532;SDS011;9396;51.510;11.934;2023-06-14T09:42:17;4.10;;;2.50;;
18532;SDS011;9396;51.510;11.934;2023-06-14T09:44:45;6.67;;;2.83;;
18532;SDS011;9396;51.510;11.934;2023-06-14T09:47:14;4.83;;;2.90;;
18532;SDS011;9396;51.510;11.934;2023-06-14T09:49:42;3.93;;;2.63;;
18532;SDS011;9396;51.510;11.934;2023-06-14T09:52:09;6.87;;;2.70;;
18532;SDS011;9396;51.510;11.934;2023-06-14T09:54:39;5.03;;;2.23;;
18532;SDS011;9396;51.510;11.934;2023-06-14T09:57:08;3.07;;;2.23;;
18532;SDS011;9396;51.510;11.934;2023-06-14T09:59:38;8.33;;;2.60;;
18532;SDS011;9396;51.510;11.934;2023-06-14T10:02:10;6.33;;;2.50;;
18532;SDS011;9396;51.510;11.934;2023-06-14T10:04:40;3.33;;;2.20;;
18532;SDS011;9396;51.510;11.934;2023-06-14T10:07:13;9.50;;;2.20;;
18532;SDS011;9396;51.510;11.934;2023-06-14T10:09:42;5.27;;;2.20;;
18532;SDS011;9396;51.510;11.934;2023-06-14T10:12:13;2.50;;;1.83;;
18532;SDS011;9396;51.510;11.934;2023-06-14T10:14:47;2.57;;;1.90;;
18532;SDS011;9396;51.510;11.934;2023-06-14T10:17:17;3.00;;;2.23;;
18532;SDS011;9396;51.510;11.934;2023-06-14T10:19:50;5.03;;;2.73;;
18532;SDS011;9396;51.510;11.934;2023-06-14T10:22:23;4.00;;;2.17;;
18532;SDS011;9396;51.510;11.934;2023-06-14T10:24:56;4.40;;;1.90;;
18532;SDS011;9396;51.510;11.934;2023-06-14T10:27:23;3.63;;;2.10;;
18532;SDS011;9396;51.510;11.934;2023-06-14T10:30:04;3.93;;;1.90;;
18532;SDS011;9396;51.510;11.934;2023-06-14T10:32:33;2.53;;;2.03;;
18532;SDS011;9396;51.510;11.934;2023-06-14T10:35:00;3.67;;;2.13;;
18532;SDS011;9396;51.510;11.934;2023-06-14T10:37:30;2.83;;;1.90;;
18532;SDS011;9396;51.510;11.934;2023-06-14T10:39:56;4.90;;;2.20;;
18532;SDS011;9396;51.510;11.934;2023-06-14T10:42:27;4.43;;;2.07;;
18532;SDS011;9396;51.510;11.934;2023-06-14T10:44:57;2.13;;;1.80;;
18532;SDS011;9396;51.510;11.934;2023-06-14T10:47:30;4.83;;;2.10;;
18532;SDS011;9396;51.510;11.934;2023-06-14T10:50:07;1.90;;;1.70;;
18532;SDS011;9396;51.510;11.934;2023-06-14T10:52:36;3.20;;;1.87;;
18532;SDS011;9396;51.510;11.934;2023-06-14T10:55:06;9.07;;;1.90;;
18532;SDS011;9396;51.510;11.934;2023-06-14T10:57:38;5.03;;;2.03;;
18532;SDS011;9396;51.510;11.934;2023-06-14T11:00:06;4.40;;;2.00;;
18532;SDS011;9396;51.510;11.934;2023-06-14T11:06:07;3.60;;;1.80;;
18532;SDS011;9396;51.510;11.934;2023-06-14T11:11:41;7.20;;;2.03;;
18532;SDS011;9396;51.510;11.934;2023-06-14T11:14:09;4.97;;;1.73;;
18532;SDS011;9396;51.510;11.934;2023-06-14T11:16:36;3.57;;;1.93;;
18532;SDS011;9396;51.510;11.934;2023-06-14T11:19:03;2.17;;;1.63;;
18532;SDS011;9396;51.510;11.934;2023-06-14T11:21:33;3.93;;;2.10;;
18532;SDS011;9396;51.510;11.934;2023-06-14T11:23:59;3.17;;;2.07;;
18532;SDS011;9396;51.510;11.934;2023-06-14T11:26:26;2.80;;;1.80;;
18532;SDS011;9396;51.510;11.934;2023-06-14T11:28:56;4.30;;;2.10;;
18532;SDS011;9396;51.510;11.934;2023-06-14T11:31:24;6.47;;;2.20;;
18532;SDS011;9396;51.510;11.934;2023-06-14T11:33:53;5.47;;;1.93;;
18532;SDS011;9396;51.510;11.934;2023-06-14T11:36:20;3.77;;;2.00;;
18532;SDS011;9396;51.510;11.934;2023-06-14T11:38:48;3.87;;;2.20;;
18532;SDS011;9396;51.510;11.934;2023-06-14T11:41:15;3.23;;;1.90;;
18532;SDS011;9396;51.510;11.934;2023-06-14T11:43:42;3.57;;;1.83;;
18532;SDS011;9396;51.510;11.934;2023-06-14T11:46:15;3.73;;;2.10;;
18532;SDS011;9396;51.510;11.934;2023-06-14T11:48:43;4.27;;;2.13;;
18532;SDS011;9396;51.510;11.934;2023-06-14T11:51:10;4.77;;;1.93;;
18532;SDS011;9396;51.510;11.934;2023-06-14T11:53:37;2.53;;;2.33;;
18532;SDS011;9396;51.510;11.934;2023-06-14T11:56:05;7.10;;;3.00;;
18532;SDS011;9396;51.510;11.934;2023-06-14T11:58:32;2.90;;;2.00;;
18532;SDS011;9396;51.510;11.934;2023-06-14T12:00:59;5.43;;;2.40;;
18532;SDS011;9396;51.510;11.934;2023-06-14T12:03:25;4.17;;;2.47;;
18532;SDS011;9396;51.510;11.934;2023-06-14T12:06:03;4.83;;;2.43;;
18532;SDS011;9396;51.510;11.934;2023-06-14T12:08:32;2.50;;;2.30;;
18532;SDS011;9396;51.510;11.934;2023-06-14T12:11:05;3.23;;;2.87;;
18532;SDS011;9396;51.510;11.934;2023-06-14T12:13:33;8.30;;;2.80;;
18532;SDS011;9396;51.510;11.934;2023-06-14T12:16:01;7.17;;;2.67;;
18532;SDS011;9396;51.510;11.934;2023-06-14T12:18:34;4.03;;;2.60;;
18532;SDS011;9396;51.510;11.934;2023-06-14T12:21:02;4.93;;;2.90;;
18532;SDS011;9396;51.510;11.934;2023-06-14T12:23:45;3.93;;;2.50;;
18532;SDS011;9396;51.510;11.934;2023-06-14T12:26:14;4.50;;;2.67;;
18532;SDS011;9396;51.510;11.934;2023-06-14T12:28:41;5.90;;;2.80;;
18532;SDS011;9396;51.510;11.934;2023-06-14T12:31:09;4.23;;;3.00;;
18532;SDS011;9396;51.510;11.934;2023-06-14T12:33:36;4.90;;;2.53;;
18532;SDS011;9396;51.510;11.934;2023-06-14T12:36:03;4.53;;;3.07;;
18532;SDS011;9396;51.510;11.934;2023-06-14T12:38:30;3.63;;;3.00;;
18532;SDS011;9396;51.510;11.934;2023-06-14T12:40:57;5.43;;;3.10;;
18532;SDS011;9396;51.510;11.934;2023-06-14T12:43:25;4.60;;;2.70;;
18532;SDS011;9396;51.510;11.934;2023-06-14T12:45:52;4.70;;;2.77;;
18532;SDS011;9396;51.510;11.934;2023-06-14T12:48:18;12.33;;;4.27;;
18532;SDS011;9396;51.510;11.934;2023-06-14T12:50:45;3.60;;;2.87;;
18532;SDS011;9396;51.510;11.934;2023-06-14T12:53:12;5.60;;;2.70;;
18532;SDS011;9396;51.510;11.934;2023-06-14T12:55:39;4.33;;;3.07;;
18532;SDS011;9396;51.510;11.934;2023-06-14T12:58:05;4.10;;;2.97;;
18532;SDS011;9396;51.510;11.934;2023-06-14T13:00:33;6.43;;;3.27;;
18532;SDS011;9396;51.510;11.934;2023-06-14T13:03:01;6.30;;;3.07;;
18532;SDS011;9396;51.510;11.934;2023-06-14T13:05:27;4.87;;;2.80;;
18532;SDS011;9396;51.510;11.934;2023-06-14T13:07:56;3.40;;;2.60;;
18532;SDS011;9396;51.510;11.934;2023-06-14T13:10:22;3.53;;;2.90;;
18532;SDS011;9396;51.510;11.934;2023-06-14T13:12:49;5.07;;;3.23;;
18532;SDS011;9396;51.510;11.934;2023-06-14T13:15:16;6.57;;;2.77;;
18532;SDS011;9396;51.510;11.934;2023-06-14T13:17:44;4.97;;;2.70;;
18532;SDS011;9396;51.510;11.934;2023-06-14T13:20:13;5.20;;;2.90;;
18532;SDS011;9396;51.510;11.934;2023-06-14T13:22:40;6.43;;;2.57;;
18532;SDS011;9396;51.510;11.934;2023-06-14T13:25:07;3.50;;;2.63;;
18532;SDS011;9396;51.510;11.934;2023-06-14T13:27:34;4.33;;;2.60;;
18532;SDS011;9396;51.510;11.934;2023-06-14T13:30:01;4.57;;;2.43;;
18532;SDS011;9396;51.510;11.934;2023-06-14T13:32:30;6.37;;;2.40;;
18532;SDS011;9396;51.510;11.934;2023-06-14T13:34:58;6.27;;;2.57;;
18532;SDS011;9396;51.510;11.934;2023-06-14T13:37:25;4.77;;;2.43;;
18532;SDS011;9396;51.510;11.934;2023-06-14T13:39:51;3.57;;;2.80;;
18532;SDS011;9396;51.510;11.934;2023-06-14T13:42:18;4.10;;;2.80;;
18532;SDS011;9396;51.510;11.934;2023-06-14T13:44:45;7.03;;;2.70;;
18532;SDS011;9396;51.510;11.934;2023-06-14T13:47:11;9.63;;;2.67;;
18532;SDS011;9396;51.510;11.934;2023-06-14T13:49:38;5.63;;;3.00;;
18532;SDS011;9396;51.510;11.934;2023-06-14T13:52:06;5.57;;;2.40;;
18532;SDS011;9396;51.510;11.934;2023-06-14T13:54:33;5.57;;;2.30;;
18532;SDS011;9396;51.510;11.934;2023-06-14T13:57:01;5.37;;;2.50;;
18532;SDS011;9396;51.510;11.934;2023-06-14T13:59:27;26.67;;;2.97;;
18532;SDS011;9396;51.510;11.934;2023-06-14T14:01:54;8.13;;;2.57;;
18532;SDS011;9396;51.510;11.934;2023-06-14T14:04:20;6.80;;;2.70;;
18532;SDS011;9396;51.510;11.934;2023-06-14T14:06:47;5.90;;;2.40;;
18532;SDS011;9396;51.510;11.934;2023-06-14T14:09:15;4.27;;;2.70;;
18532;SDS011;9396;51.510;11.934;2023-06-14T14:11:42;3.77;;;2.60;;
18532;SDS011;9396;51.510;11.934;2023-06-14T14:14:08;6.00;;;2.80;;
18532;SDS011;9396;51.510;11.934;2023-06-14T14:16:35;7.10;;;2.70;;
18532;SDS011;9396;51.510;11.934;2023-06-14T14:19:02;2.80;;;2.40;;
18532;SDS011;9396;51.510;11.934;2023-06-14T14:21:29;5.37;;;2.33;;
18532;SDS011;9396;51.510;11.934;2023-06-14T14:23:55;6.07;;;2.70;;
18532;SDS011;9396;51.510;11.934;2023-06-14T14:26:23;6.80;;;2.60;;
18532;SDS011;9396;51.510;11.934;2023-06-14T14:28:50;5.60;;;2.57;;
18532;SDS011;9396;51.510;11.934;2023-06-14T14:31:17;2.90;;;2.23;;
18532;SDS011;9396;51.510;11.934;2023-06-14T14:33:44;5.63;;;2.50;;
18532;SDS011;9396;51.510;11.934;2023-06-14T14:36:10;4.63;;;2.63;;
18532;SDS011;9396;51.510;11.934;2023-06-14T14:38:38;6.53;;;2.63;;
18532;SDS011;9396;51.510;11.934;2023-06-14T14:41:05;4.77;;;2.50;;
18532;SDS011;9396;51.510;11.934;2023-06-14T14:43:33;4.73;;;2.40;;
18532;SDS011;9396;51.510;11.934;2023-06-14T14:45:59;4.50;;;2.50;;
18532;SDS011;9396;51.510;11.934;2023-06-14T14:48:26;5.70;;;2.70;;
18532;SDS011;9396;51.510;11.934;2023-06-14T14:50:52;4.70;;;2.33;;
18532;SDS011;9396;51.510;11.934;2023-06-14T14:53:19;7.73;;;2.27;;
18532;SDS011;9396;51.510;11.934;2023-06-14T14:55:46;7.70;;;2.80;;
18532;SDS011;9396;51.510;11.934;2023-06-14T14:58:12;3.17;;;2.63;;
18532;SDS011;9396;51.510;11.934;2023-06-14T15:00:43;3.67;;;2.37;;